createdAt,value
2023-08-07T00:01:29.710Z,14.70
2023-08-07T00:06:31.385Z,14.74
2023-08-07T00:11:33.807Z,14.75
2023-08-07T00:16:36.184Z,14.75
2023-08-07T00:21:38.989Z,14.74
2023-08-07T00:26:40.668Z,14.62
2023-08-07T00:31:42.539Z,14.71
2023-08-07T00:36:44.739Z,14.75
2023-08-07T00:41:46.466Z,14.81
2023-08-07T00:46:48.376Z,14.77
2023-08-07T00:51:50.187Z,14.87
2023-08-07T00:56:52.073Z,14.85
2023-08-07T01:01:53.896Z,14.70
2023-08-07T01:06:55.825Z,14.68
2023-08-07T01:11:57.594Z,14.85
2023-08-07T01:17:09.324Z,14.79
2023-08-07T01:22:18.519Z,14.75
2023-08-07T01:27:20.449Z,14.73
2023-08-07T01:32:34.953Z,14.75
2023-08-07T01:37:41.772Z,14.56
2023-08-07T01:42:45.390Z,14.44
2023-08-07T01:47:47.150Z,14.47
2023-08-07T01:52:49.629Z,14.51
2023-08-07T01:57:52.780Z,14.61
2023-08-07T02:02:54.726Z,14.53
2023-08-07T02:07:57.990Z,14.55
2023-08-07T02:13:02.760Z,14.66
2023-08-07T02:18:04.708Z,14.71
2023-08-07T02:23:06.688Z,14.78
2023-08-07T02:28:08.422Z,14.82
2023-08-07T02:33:10.136Z,14.86
2023-08-07T02:38:11.814Z,14.84
2023-08-07T02:43:13.518Z,14.79
2023-08-07T02:48:15.591Z,14.82
2023-08-07T02:53:17.343Z,14.76
2023-08-07T02:58:19.013Z,14.73
2023-08-07T03:03:21.045Z,14.50
2023-08-07T03:08:22.805Z,14.42
2023-08-07T03:13:25.565Z,14.37
2023-08-07T03:18:28.191Z,14.03
2023-08-07T03:23:30.328Z,13.71
2023-08-07T03:28:35.335Z,13.55
2023-08-07T03:33:37.428Z,13.38
2023-08-07T03:38:40.086Z,13.38
2023-08-07T03:43:42.003Z,13.52
2023-08-07T03:48:43.820Z,13.56
2023-08-07T03:53:46.109Z,13.82
2023-08-07T03:58:48.028Z,13.85
2023-08-07T04:03:49.878Z,13.95
2023-08-07T04:08:51.640Z,14.02
2023-08-07T04:13:53.452Z,14.19
2023-08-07T04:18:55.196Z,14.14
2023-08-07T04:23:56.932Z,14.03
2023-08-07T04:28:59.611Z,14.22
2023-08-07T04:34:01.378Z,14.27
2023-08-07T04:39:03.278Z,14.18
2023-08-07T04:44:05.173Z,14.18
2023-08-07T04:49:07.271Z,14.29
2023-08-07T04:54:10.056Z,14.33
2023-08-07T04:59:12.362Z,14.36
2023-08-07T05:04:14.068Z,14.47
2023-08-07T05:09:15.761Z,14.52
2023-08-07T05:14:17.444Z,14.49
2023-08-07T05:19:19.218Z,14.56
2023-08-07T05:24:21.004Z,14.71
2023-08-07T05:29:22.742Z,14.70
2023-08-07T05:34:24.469Z,14.74
2023-08-07T05:39:26.153Z,14.68
2023-08-07T05:44:27.879Z,14.84
2023-08-07T05:49:29.578Z,14.85
2023-08-07T05:54:31.272Z,15.07
2023-08-07T05:59:41.235Z,14.95
2023-08-07T06:04:43.008Z,15.05
2023-08-07T06:09:44.732Z,15.26
2023-08-07T06:14:46.422Z,15.31
2023-08-07T06:19:48.246Z,15.22
2023-08-07T06:24:50.034Z,15.17
2023-08-07T06:29:51.787Z,15.23
2023-08-07T06:34:54.008Z,15.26
2023-08-07T06:39:55.700Z,15.48
2023-08-07T06:45:00.559Z,15.43
2023-08-07T06:50:05.194Z,15.63
2023-08-07T06:55:07.930Z,15.75
2023-08-07T07:00:12.080Z,15.95
2023-08-07T07:05:14.387Z,16.07
2023-08-07T07:10:16.154Z,16.07
2023-08-07T07:15:18.019Z,16.13
2023-08-07T07:20:19.997Z,15.99
2023-08-07T07:25:21.728Z,16.07
2023-08-07T07:30:23.487Z,16.39
2023-08-07T07:35:25.458Z,16.53
2023-08-07T07:40:27.199Z,16.80
2023-08-07T07:45:29.123Z,16.88
2023-08-07T07:50:31.013Z,16.70
2023-08-07T07:55:33.285Z,16.63
2023-08-07T08:00:35.006Z,16.64
2023-08-07T08:05:36.733Z,16.82
2023-08-07T08:10:38.427Z,17.02
2023-08-07T08:15:40.251Z,17.02
2023-08-07T08:20:42.038Z,17.10
2023-08-07T08:25:43.803Z,17.11
2023-08-07T08:30:45.575Z,17.11
2023-08-07T08:35:47.350Z,17.24
2023-08-07T08:40:52.919Z,17.17
2023-08-07T08:45:54.771Z,17.38
2023-08-07T08:50:56.867Z,17.78
2023-08-07T08:55:58.615Z,17.73
2023-08-07T09:01:00.423Z,17.68
2023-08-07T09:06:02.472Z,17.50
2023-08-07T09:11:05.621Z,17.32
2023-08-07T09:16:09.968Z,17.51
2023-08-07T09:21:11.994Z,18.00
2023-08-07T09:26:13.960Z,18.39
2023-08-07T09:31:21.267Z,18.44
2023-08-07T09:36:24.817Z,18.45
2023-08-07T09:41:26.717Z,18.58
2023-08-07T09:46:28.515Z,18.85
2023-08-07T09:51:43.172Z,18.39
2023-08-07T09:56:45.093Z,18.66
2023-08-07T10:01:47.311Z,19.12
2023-08-07T10:06:49.374Z,18.45
2023-08-07T10:11:51.600Z,18.08
2023-08-07T10:16:54.728Z,18.37
2023-08-07T10:21:56.861Z,18.46
2023-08-07T10:26:59.854Z,17.74
2023-08-07T10:32:03.081Z,16.81
2023-08-07T10:37:09.006Z,16.53
2023-08-07T10:42:12.985Z,16.89
2023-08-07T10:47:14.799Z,17.34
2023-08-07T10:52:16.495Z,17.26
2023-08-07T10:57:19.738Z,17.04
2023-08-07T11:02:27.171Z,17.38
2023-08-07T11:07:30.984Z,18.12
2023-08-07T11:12:32.717Z,17.99
2023-08-07T11:17:34.490Z,18.10
2023-08-07T11:22:36.179Z,18.81
2023-08-07T11:27:37.897Z,18.77
2023-08-07T11:32:39.734Z,18.24
2023-08-07T11:37:48.981Z,18.19
2023-08-07T11:42:50.686Z,18.02
2023-08-07T11:47:52.508Z,17.73
2023-08-07T11:52:54.430Z,17.61
2023-08-07T11:57:56.574Z,17.32
2023-08-07T12:02:58.313Z,17.17
2023-08-07T12:08:00.100Z,17.73
2023-08-07T12:13:05.898Z,18.27
2023-08-07T12:18:09.016Z,18.38
2023-08-07T12:23:17.472Z,18.59
2023-08-07T12:28:19.954Z,18.29
2023-08-07T12:33:21.681Z,17.99
2023-08-07T12:38:23.488Z,17.66
2023-08-07T12:43:25.812Z,17.63
2023-08-07T12:48:29.467Z,17.83
2023-08-07T12:53:32.971Z,18.05
2023-08-07T12:58:35.274Z,17.94
2023-08-07T13:03:38.247Z,17.51
2023-08-07T13:08:40.060Z,17.13
2023-08-07T13:13:42.657Z,17.63
2023-08-07T13:18:44.524Z,18.26
2023-08-07T13:23:46.222Z,18.64
2023-08-07T13:28:47.919Z,18.88
2023-08-07T13:33:49.598Z,18.90
2023-08-07T13:38:52.928Z,18.97
2023-08-07T13:43:54.925Z,18.54
2023-08-07T13:48:56.747Z,17.90
2023-08-07T13:53:58.566Z,17.93
2023-08-07T13:59:01.326Z,17.91
2023-08-07T14:04:03.923Z,17.43
2023-08-07T14:09:05.811Z,16.32
2023-08-07T14:14:07.566Z,15.32
2023-08-07T14:19:09.683Z,15.21
2023-08-07T14:24:11.517Z,15.23
2023-08-07T14:29:14.456Z,15.33
2023-08-07T14:34:16.228Z,15.85
2023-08-07T14:39:18.219Z,16.25
2023-08-07T14:44:20.023Z,16.59
2023-08-07T14:49:21.906Z,16.72
2023-08-07T14:54:24.853Z,17.17
2023-08-07T14:59:26.895Z,17.23
2023-08-07T15:04:28.941Z,17.03
2023-08-07T15:09:30.773Z,16.89
2023-08-07T15:14:32.511Z,16.46
2023-08-07T15:19:34.431Z,15.96
2023-08-07T15:24:36.476Z,15.78
2023-08-07T15:29:42.013Z,15.77
2023-08-07T15:34:43.852Z,15.95
2023-08-07T15:39:45.690Z,16.23
2023-08-07T15:44:47.791Z,16.33
2023-08-07T15:49:49.669Z,16.30
2023-08-07T15:54:51.377Z,16.16
2023-08-07T15:59:53.229Z,15.05
2023-08-07T16:04:54.934Z,14.37
2023-08-07T16:09:57.162Z,14.10
2023-08-07T16:15:00.197Z,14.02
2023-08-07T16:20:01.996Z,14.20
2023-08-07T16:25:05.210Z,14.40
2023-08-07T16:30:08.238Z,14.52
2023-08-07T16:35:10.327Z,14.79
2023-08-07T16:40:12.735Z,14.81
2023-08-07T16:45:14.481Z,15.28
2023-08-07T16:50:16.371Z,15.35
2023-08-07T16:55:18.228Z,15.40
2023-08-07T17:00:20.180Z,15.39
2023-08-07T17:05:23.395Z,15.26
2023-08-07T17:10:25.321Z,14.96
2023-08-07T17:15:27.294Z,14.67
2023-08-07T17:20:29.161Z,14.54
2023-08-07T17:25:30.969Z,14.76
2023-08-07T17:30:32.703Z,14.68
2023-08-07T17:35:35.580Z,14.69
2023-08-07T17:40:37.434Z,14.68
2023-08-07T17:45:39.181Z,14.54
2023-08-07T17:50:41.038Z,14.45
2023-08-07T17:55:44.129Z,14.34
2023-08-07T18:00:46.062Z,14.29
2023-08-07T18:05:47.879Z,14.24
2023-08-07T18:10:50.129Z,14.33
2023-08-07T18:15:52.224Z,14.41
2023-08-07T18:20:54.791Z,14.45
2023-08-07T18:25:57.291Z,14.39
2023-08-07T18:30:59.738Z,14.31
2023-08-07T18:36:02.156Z,14.35
2023-08-07T18:41:07.121Z,14.39
2023-08-07T18:46:09.222Z,14.25
2023-08-07T18:51:12.173Z,14.15
2023-08-07T18:56:15.157Z,14.20
2023-08-07T19:01:18.402Z,13.99
2023-08-07T19:06:20.960Z,13.96
2023-08-07T19:11:23.140Z,13.82
2023-08-07T19:16:25.232Z,13.83
2023-08-07T19:21:27.447Z,14.01
2023-08-07T19:26:29.673Z,13.91
2023-08-07T19:31:31.956Z,13.90
2023-08-07T19:36:33.940Z,13.85
2023-08-07T19:41:37.355Z,13.74
2023-08-07T19:46:39.365Z,13.79
2023-08-07T19:51:41.523Z,13.74
2023-08-07T19:56:43.747Z,13.72
2023-08-07T20:01:45.955Z,13.70
2023-08-07T20:06:47.775Z,13.84
2023-08-07T20:11:49.672Z,13.89
2023-08-07T20:16:51.856Z,13.87
2023-08-07T20:22:00.046Z,13.98
2023-08-07T20:27:02.194Z,14.11
2023-08-07T20:32:04.698Z,14.05
2023-08-07T20:37:22.828Z,14.13
2023-08-07T20:42:26.738Z,14.14
2023-08-07T20:47:28.686Z,14.17
2023-08-07T20:52:30.437Z,14.22
2023-08-07T20:57:32.127Z,14.23
2023-08-07T21:02:34.118Z,14.20
2023-08-07T21:07:35.773Z,14.13
2023-08-07T21:12:37.529Z,14.13
2023-08-07T21:17:39.209Z,14.17
2023-08-07T21:22:40.977Z,14.10
2023-08-07T21:27:44.719Z,14.12
2023-08-07T21:32:47.001Z,14.14
2023-08-07T21:37:48.739Z,14.07
2023-08-07T21:42:50.432Z,14.07
2023-08-07T21:47:52.236Z,13.94
2023-08-07T21:52:53.952Z,14.06
2023-08-07T21:57:55.677Z,14.12
2023-08-07T22:02:57.430Z,14.05
2023-08-07T22:08:01.690Z,13.99
2023-08-07T22:13:03.465Z,14.02
2023-08-07T22:18:05.447Z,14.03
2023-08-07T22:23:07.154Z,13.99
2023-08-07T22:28:09.792Z,14.00
2023-08-07T22:33:11.562Z,13.90
2023-08-07T22:38:13.302Z,13.90
2023-08-07T22:43:15.184Z,13.77
2023-08-07T22:48:17.294Z,13.75
2023-08-07T22:53:19.031Z,13.69
2023-08-07T22:58:20.732Z,13.58
2023-08-07T23:03:22.545Z,13.59
2023-08-07T23:08:24.307Z,13.60
2023-08-07T23:13:25.931Z,13.49
2023-08-07T23:18:27.697Z,13.48
2023-08-07T23:23:29.491Z,13.44
2023-08-07T23:28:31.172Z,13.38
2023-08-07T23:33:32.929Z,13.38
2023-08-07T23:38:34.667Z,13.31
2023-08-07T23:43:36.458Z,13.25
2023-08-07T23:48:39.921Z,13.23
2023-08-07T23:53:41.548Z,13.31
2023-08-07T23:58:43.273Z,13.08
